West Yellowstone, Montana
Current Conditions -  °F | °C
As of 8:56 AM on Wednesday 26 Nov 2014 (Local Time) from KDIJ Reporting Station
Overcast Overcast  
Wind Chill:   Ceiling: 6000
Heat Index:   Visibility: 10mi
Dew Point:   Wind: 9mph
Humidity: 79%   Direction: 190°S
Pressure: 30.26"   Gusts: 22mph
Location:  44.66°N, 111.1°W
Report Text: KDIJ 261556Z AUTO 19008G19KT 10SM FEW021 OVC060 03/00 A3026 RMK AO2 T00330000 SLP227
Loading
Personal Weather Stations






























Interactive Weather Map New forecast layout! Learn more

10-Day Weather Forecast

Advertisements
Track Severe Weather on mobile